Arbutus, Maryland
Current Conditions -  °F | °C
As of 5:54 PM on Wednesday 22 Oct 2014 (Local Time) from KBWI Reporting Station
Light Rain Light Rain  
Wind Chill: 12°   Ceiling: 3000
Heat Index: 12°   Visibility: 10mi
Dew Point:   Wind: 15mph
Humidity: 77%   Direction: 330°NNW
Pressure: 29.9"   Gusts: 21mph
Location:  39.2187°N, 76.722°W
Report Text: KBWI 222154Z 33013G18KT 10SM -RA FEW024 BKN030 OVC036 12/08 A2990 RMK AO2 RAE17B33 SLP125 P0000 T01220083
Loading
Personal Weather Stations






























Interactive Weather Map
Tropical Storm Tracking
New forecast layout! Learn more

10-Day Weather Forecast

Advertisements
Track Severe Weather on mobile